createdAt,value
2018-12-17T00:01:22.260Z,91.70
2018-12-17T00:03:50.446Z,91.40
2018-12-17T00:06:18.624Z,91.30
2018-12-17T00:08:47.120Z,91.30
2018-12-17T00:11:16.070Z,91.20
2018-12-17T00:13:44.219Z,91.10
2018-12-17T00:16:12.414Z,91.00
2018-12-17T00:18:40.723Z,91.20
2018-12-17T00:21:08.855Z,91.30
2018-12-17T00:23:36.957Z,91.30
2018-12-17T00:26:05.111Z,91.30
2018-12-17T00:28:33.250Z,91.30
2018-12-17T00:31:01.603Z,91.30
2018-12-17T00:33:29.756Z,91.20
2018-12-17T00:35:57.873Z,91.20
2018-12-17T00:38:26.097Z,91.00
2018-12-17T00:40:54.420Z,91.00
2018-12-17T00:43:22.946Z,91.00
2018-12-17T00:45:51.074Z,91.10
2018-12-17T00:48:19.609Z,91.10
2018-12-17T00:50:47.877Z,91.10
2018-12-17T00:53:16.058Z,91.10
2018-12-17T00:55:44.333Z,91.40
2018-12-17T00:58:15.314Z,91.00
2018-12-17T01:00:42.605Z,91.10
2018-12-17T01:03:10.792Z,91.00
2018-12-17T01:05:38.934Z,91.10
2018-12-17T01:08:07.113Z,91.10
2018-12-17T01:10:35.309Z,91.10
2018-12-17T01:13:03.716Z,91.00
2018-12-17T01:15:32.095Z,90.90
2018-12-17T01:18:00.209Z,90.80
2018-12-17T01:20:28.339Z,90.60
2018-12-17T01:22:56.546Z,90.50
2018-12-17T01:25:24.617Z,90.70
2018-12-17T01:27:52.738Z,90.80
2018-12-17T01:30:20.895Z,90.70
2018-12-17T01:32:49.346Z,90.80
2018-12-17T01:35:17.481Z,91.00
2018-12-17T01:37:45.612Z,91.10
2018-12-17T01:40:13.757Z,91.20
2018-12-17T01:42:41.886Z,91.20
2018-12-17T01:45:10.065Z,91.00
2018-12-17T01:47:38.188Z,91.10
2018-12-17T01:50:06.386Z,90.80
2018-12-17T01:52:34.786Z,90.60
2018-12-17T01:55:02.922Z,90.50
2018-12-17T01:57:31.079Z,90.50
2018-12-17T01:59:59.617Z,90.60
2018-12-17T02:02:27.749Z,90.90
2018-12-17T02:04:55.885Z,90.90
2018-12-17T02:07:24.675Z,90.90
2018-12-17T02:09:52.765Z,91.10
2018-12-17T02:12:21.388Z,91.10
2018-12-17T02:14:49.766Z,91.30
2018-12-17T02:17:17.937Z,91.40
2018-12-17T02:19:46.118Z,91.60
2018-12-17T02:22:14.568Z,91.70
2018-12-17T02:24:42.691Z,91.40
2018-12-17T02:27:10.845Z,91.10
2018-12-17T02:29:39.157Z,91.00
2018-12-17T02:32:07.260Z,90.80
2018-12-17T02:34:35.402Z,90.70
2018-12-17T02:37:03.637Z,90.70
2018-12-17T02:39:31.800Z,90.60
2018-12-17T02:42:00.052Z,90.50
2018-12-17T02:44:28.578Z,90.50
2018-12-17T02:46:56.633Z,90.60
2018-12-17T02:49:24.949Z,90.60
2018-12-17T02:51:53.488Z,90.40
2018-12-17T02:54:22.162Z,90.50
2018-12-17T02:56:50.397Z,90.40
2018-12-17T02:59:18.625Z,90.40
2018-12-17T03:01:46.991Z,90.10
2018-12-17T03:04:15.143Z,90.10
2018-12-17T03:06:43.480Z,89.90
2018-12-17T03:09:11.721Z,89.80
2018-12-17T03:11:39.930Z,89.60
2018-12-17T03:14:08.400Z,89.50
2018-12-17T03:16:36.614Z,90.00
2018-12-17T03:19:04.913Z,90.00
2018-12-17T03:21:33.338Z,89.90
2018-12-17T03:24:01.672Z,89.70
2018-12-17T03:26:29.879Z,89.60
2018-12-17T03:28:59.147Z,89.30
2018-12-17T03:31:27.639Z,89.10
2018-12-17T03:33:55.930Z,88.80
2018-12-17T03:36:24.215Z,88.70
2018-12-17T03:38:52.398Z,88.50
2018-12-17T03:41:20.974Z,88.10
2018-12-17T03:43:49.089Z,88.40
2018-12-17T03:46:17.216Z,88.10
2018-12-17T03:48:45.417Z,88.10
2018-12-17T03:51:13.540Z,88.00
2018-12-17T03:53:41.698Z,88.10
2018-12-17T03:56:10.137Z,89.20
2018-12-17T03:58:38.277Z,89.90
2018-12-17T04:01:06.411Z,90.10
2018-12-17T04:03:34.534Z,90.30
2018-12-17T04:06:02.701Z,90.30
2018-12-17T04:08:30.842Z,90.40
2018-12-17T04:10:58.954Z,90.70
2018-12-17T04:13:27.046Z,90.30
2018-12-17T04:15:55.170Z,90.30
2018-12-17T04:18:23.767Z,90.20
2018-12-17T04:20:51.912Z,90.20
2018-12-17T04:23:20.045Z,90.00
2018-12-17T04:25:49.073Z,90.00
2018-12-17T04:28:17.197Z,89.80
2018-12-17T04:30:45.362Z,90.00
2018-12-17T04:33:14.063Z,90.00
2018-12-17T04:35:42.334Z,90.10
2018-12-17T04:38:10.423Z,90.10
2018-12-17T04:40:38.525Z,90.00
2018-12-17T04:43:06.696Z,90.00
2018-12-17T04:45:34.865Z,90.00
2018-12-17T04:48:03.085Z,89.30
2018-12-17T04:50:31.370Z,89.60
2018-12-17T04:52:59.525Z,89.80
2018-12-17T04:55:27.704Z,89.90
2018-12-17T04:57:56.135Z,89.60
2018-12-17T05:00:24.366Z,89.40
2018-12-17T05:02:52.580Z,89.40
2018-12-17T05:05:20.698Z,89.50
2018-12-17T05:07:48.820Z,89.30
2018-12-17T05:10:16.923Z,89.50
2018-12-17T05:12:45.244Z,89.10
2018-12-17T05:15:13.359Z,89.60
2018-12-17T05:17:41.790Z,88.60
2018-12-17T05:20:10.430Z,88.50
2018-12-17T05:22:38.573Z,88.70
2018-12-17T05:25:07.167Z,88.50
2018-12-17T05:27:35.401Z,89.20
2018-12-17T05:30:03.757Z,89.20
2018-12-17T05:32:31.972Z,90.20
2018-12-17T05:35:00.113Z,90.20
2018-12-17T05:37:28.206Z,90.40
2018-12-17T05:39:56.684Z,90.20
2018-12-17T05:42:24.836Z,90.20
2018-12-17T05:44:53.037Z,90.10
2018-12-17T05:47:21.309Z,90.20
2018-12-17T05:49:49.610Z,90.30
2018-12-17T05:52:17.890Z,90.40
2018-12-17T05:54:46.222Z,90.30
2018-12-17T06:00:13.509Z,90.10
2018-12-17T06:02:41.645Z,89.70
2018-12-17T06:05:09.791Z,89.60
2018-12-17T06:07:38.060Z,89.70
2018-12-17T06:10:06.213Z,90.00
2018-12-17T06:12:34.400Z,90.00
2018-12-17T06:15:02.872Z,89.90
2018-12-17T06:17:31.033Z,89.70
2018-12-17T06:19:59.177Z,89.90
2018-12-17T06:22:27.898Z,89.70
2018-12-17T06:24:56.039Z,89.50
2018-12-17T06:27:24.621Z,89.30
2018-12-17T06:29:52.782Z,89.10
2018-12-17T06:32:20.877Z,89.10
2018-12-17T06:34:49.070Z,89.30
2018-12-17T06:37:17.386Z,89.40
2018-12-17T06:39:45.650Z,89.30
2018-12-17T06:42:13.797Z,89.60
2018-12-17T06:44:41.996Z,89.60
2018-12-17T06:47:10.151Z,89.80
2018-12-17T06:49:38.317Z,89.90
2018-12-17T06:52:06.586Z,90.00
2018-12-17T06:54:34.782Z,89.70
2018-12-17T06:57:02.926Z,89.60
2018-12-17T06:59:31.424Z,89.30
2018-12-17T07:01:59.601Z,89.10
2018-12-17T07:04:27.737Z,89.00
2018-12-17T07:06:55.934Z,89.20
2018-12-17T07:09:24.035Z,88.80
2018-12-17T07:11:52.188Z,88.90
2018-12-17T07:14:20.407Z,88.90
2018-12-17T07:16:48.603Z,89.00
2018-12-17T07:19:16.694Z,88.90
2018-12-17T07:21:44.874Z,88.60
2018-12-17T07:24:13.241Z,88.50
2018-12-17T07:26:41.365Z,88.40
2018-12-17T07:29:09.924Z,88.20
2018-12-17T07:31:38.051Z,87.90
2018-12-17T07:34:06.169Z,88.00
2018-12-17T07:36:34.355Z,87.80
2018-12-17T07:39:02.485Z,88.00
2018-12-17T07:41:30.673Z,88.10
2018-12-17T07:43:59.154Z,88.00
2018-12-17T07:46:27.233Z,87.70
2018-12-17T07:48:55.303Z,87.60
2018-12-17T07:51:23.502Z,87.10
2018-12-17T07:53:51.630Z,86.90
2018-12-17T07:56:19.866Z,86.70
2018-12-17T07:58:48.197Z,86.80
2018-12-17T08:01:16.313Z,86.40
2018-12-17T08:03:44.508Z,86.50
2018-12-17T08:06:12.611Z,86.30
2018-12-17T08:08:40.778Z,86.30
2018-12-17T08:11:08.869Z,85.90
2018-12-17T08:13:37.102Z,85.60
2018-12-17T08:16:05.361Z,85.60
2018-12-17T08:18:34.149Z,85.60
2018-12-17T08:21:02.611Z,85.50
2018-12-17T08:23:30.870Z,85.50
2018-12-17T08:25:59.345Z,85.30
2018-12-17T08:28:27.514Z,84.90
2018-12-17T08:30:55.656Z,84.50
2018-12-17T08:33:23.814Z,84.50
2018-12-17T08:35:52.439Z,84.50
2018-12-17T08:38:20.602Z,84.10
2018-12-17T08:40:48.790Z,84.10
2018-12-17T08:43:17.092Z,84.20
2018-12-17T08:45:45.364Z,83.70
2018-12-17T08:48:20.095Z,83.30
2018-12-17T08:50:48.225Z,83.80
2018-12-17T08:53:16.447Z,83.20
2018-12-17T08:55:44.661Z,83.00
2018-12-17T08:58:12.871Z,83.40
2018-12-17T09:00:41.025Z,83.40
2018-12-17T09:03:09.490Z,83.10
2018-12-17T09:05:37.601Z,82.80
2018-12-17T09:08:05.776Z,82.70
2018-12-17T09:10:34.025Z,82.60
2018-12-17T09:13:02.261Z,82.50
2018-12-17T09:15:30.419Z,82.30
2018-12-17T09:17:58.756Z,82.20
2018-12-17T09:20:26.979Z,82.50
2018-12-17T09:22:55.365Z,81.90
2018-12-17T09:25:23.646Z,82.30
2018-12-17T09:27:52.718Z,82.30
2018-12-17T09:30:20.962Z,82.50
2018-12-17T09:32:49.549Z,82.30
2018-12-17T09:35:17.962Z,82.10
2018-12-17T09:37:47.001Z,82.30
2018-12-17T09:40:15.530Z,81.90
2018-12-17T09:42:44.657Z,81.60
2018-12-17T09:45:12.846Z,81.30
2018-12-17T09:47:40.973Z,81.20
2018-12-17T09:50:09.222Z,81.20
2018-12-17T09:52:37.579Z,81.60
2018-12-17T09:55:06.020Z,82.10
2018-12-17T09:57:34.162Z,81.80
2018-12-17T10:00:02.577Z,81.50
2018-12-17T10:02:31.425Z,81.40
2018-12-17T10:04:59.507Z,81.30
2018-12-17T10:07:30.520Z,81.20
2018-12-17T10:09:58.205Z,81.30
2018-12-17T10:12:26.301Z,81.80
2018-12-17T10:14:54.429Z,81.60
2018-12-17T10:17:22.585Z,82.40
2018-12-17T10:19:50.758Z,82.80
2018-12-17T10:22:18.953Z,82.70
2018-12-17T10:24:47.329Z,82.80
2018-12-17T10:27:16.428Z,82.60
2018-12-17T10:29:45.014Z,82.80
2018-12-17T10:32:13.117Z,82.60
2018-12-17T10:34:41.230Z,81.80
2018-12-17T10:37:09.436Z,81.60
2018-12-17T10:39:37.598Z,81.20
2018-12-17T10:42:05.777Z,81.00
2018-12-17T10:44:33.893Z,80.70
2018-12-17T10:47:02.431Z,80.90
2018-12-17T10:49:30.567Z,80.70
2018-12-17T10:51:58.685Z,81.00
2018-12-17T10:54:26.899Z,80.90
2018-12-17T10:56:54.960Z,81.30
2018-12-17T10:59:23.098Z,81.50
2018-12-17T11:02:05.018Z,81.40
2018-12-17T11:04:38.789Z,82.50
2018-12-17T11:07:08.301Z,82.90
2018-12-17T11:09:36.980Z,83.50
2018-12-17T11:12:05.585Z,83.90
2018-12-17T11:14:34.045Z,84.00
2018-12-17T11:17:02.347Z,83.70
2018-12-17T11:19:30.810Z,83.30
2018-12-17T11:21:59.152Z,84.10
2018-12-17T11:24:27.393Z,85.60
2018-12-17T11:26:55.751Z,87.40
2018-12-17T11:29:24.149Z,87.90
2018-12-17T11:31:52.546Z,88.30
2018-12-17T11:34:20.674Z,88.40
2018-12-17T11:36:48.809Z,88.10
2018-12-17T11:39:16.954Z,88.10
2018-12-17T11:41:45.101Z,88.90
2018-12-17T11:44:13.569Z,89.50
2018-12-17T11:46:41.681Z,90.00
2018-12-17T11:49:09.787Z,89.80
2018-12-17T11:51:37.947Z,90.10
2018-12-17T11:54:06.297Z,90.20
2018-12-17T11:57:48.360Z,90.20
2018-12-17T12:00:16.713Z,89.80
2018-12-17T12:02:44.877Z,88.60
2018-12-17T12:05:13.027Z,88.60
2018-12-17T12:07:41.326Z,89.00
2018-12-17T12:10:09.490Z,88.10
2018-12-17T12:12:37.700Z,87.90
2018-12-17T12:15:05.886Z,87.10
2018-12-17T12:17:34.696Z,87.00
2018-12-17T12:20:02.887Z,86.80
2018-12-17T12:22:32.720Z,86.50
2018-12-17T12:25:01.294Z,86.60
2018-12-17T12:27:29.966Z,87.10
2018-12-17T12:29:58.532Z,87.30
2018-12-17T12:32:27.340Z,86.90
2018-12-17T12:34:55.658Z,87.00
2018-12-17T12:37:24.381Z,86.70
2018-12-17T12:39:52.554Z,86.70
2018-12-17T12:42:20.730Z,86.70
2018-12-17T12:44:48.883Z,86.30
2018-12-17T12:47:17.055Z,86.50
2018-12-17T12:49:45.234Z,86.20
2018-12-17T12:52:13.425Z,87.60
2018-12-17T12:54:41.797Z,88.00
2018-12-17T12:57:09.971Z,87.60
2018-12-17T12:59:38.045Z,87.80
2018-12-17T13:02:06.162Z,88.20
2018-12-17T13:04:34.394Z,88.20
2018-12-17T13:07:02.562Z,88.00
2018-12-17T13:09:30.713Z,87.80
2018-12-17T13:11:58.900Z,86.90
2018-12-17T13:14:27.996Z,87.40
2018-12-17T13:16:56.317Z,88.00
2018-12-17T13:19:24.427Z,88.40
2018-12-17T13:21:53.106Z,88.60
2018-12-17T13:24:21.267Z,87.80
2018-12-17T13:26:49.503Z,88.00
2018-12-17T13:29:17.669Z,87.50
2018-12-17T13:31:45.823Z,88.10
2018-12-17T13:34:14.329Z,88.10
2018-12-17T13:36:43.709Z,88.30
2018-12-17T13:39:11.865Z,88.80
2018-12-17T13:41:40.046Z,89.10
2018-12-17T13:44:08.290Z,89.40
2018-12-17T13:46:36.473Z,89.50
2018-12-17T13:49:04.597Z,90.10
2018-12-17T13:51:33.277Z,90.10
2018-12-17T13:54:01.875Z,90.10
2018-12-17T13:56:30.114Z,90.80
2018-12-17T13:58:58.499Z,90.60
2018-12-17T14:01:26.833Z,90.70
2018-12-17T14:03:55.111Z,90.80
2018-12-17T14:06:23.430Z,90.80
2018-12-17T14:08:51.701Z,90.60
2018-12-17T14:11:20.775Z,90.20
2018-12-17T14:13:49.323Z,90.10
2018-12-17T14:16:17.614Z,90.10
2018-12-17T14:18:51.265Z,89.80
2018-12-17T14:21:24.783Z,89.40
2018-12-17T14:23:53.014Z,89.50
2018-12-17T14:26:21.145Z,89.80
2018-12-17T14:28:50.200Z,90.10
2018-12-17T14:31:18.582Z,90.20
2018-12-17T14:33:46.754Z,90.30
2018-12-17T14:36:14.996Z,90.40
2018-12-17T14:38:43.405Z,90.30
2018-12-17T14:41:11.514Z,90.30
2018-12-17T14:43:39.638Z,90.20
2018-12-17T14:46:08.035Z,90.40
2018-12-17T14:48:36.138Z,89.90
2018-12-17T14:51:04.285Z,90.00
2018-12-17T14:53:32.689Z,90.40
2018-12-17T14:56:00.941Z,90.60
2018-12-17T14:58:29.257Z,90.70
2018-12-17T15:00:57.582Z,90.60
2018-12-17T15:03:25.829Z,90.60
2018-12-17T15:05:53.967Z,90.60
2018-12-17T15:08:22.195Z,90.70
2018-12-17T15:10:51.185Z,90.30
2018-12-17T15:13:19.329Z,90.40
2018-12-17T15:15:47.964Z,90.70
2018-12-17T15:18:16.109Z,90.90
2018-12-17T15:20:44.329Z,90.90
2018-12-17T15:23:12.600Z,91.00
2018-12-17T15:25:40.807Z,91.00
2018-12-17T15:28:09.044Z,91.10
2018-12-17T15:30:37.467Z,91.10
2018-12-17T15:33:05.623Z,91.20
2018-12-17T15:35:33.742Z,91.10
2018-12-17T15:38:02.309Z,91.00
2018-12-17T15:40:30.450Z,90.80
2018-12-17T15:42:58.598Z,90.40
2018-12-17T15:45:26.816Z,90.60
2018-12-17T15:47:54.966Z,90.80
2018-12-17T15:50:23.108Z,91.10
2018-12-17T15:52:51.641Z,91.00
2018-12-17T15:55:19.797Z,91.10
2018-12-17T15:57:47.930Z,91.00
2018-12-17T16:00:16.114Z,91.20
2018-12-17T16:02:44.309Z,91.20
2018-12-17T16:05:12.434Z,90.90
2018-12-17T16:07:40.831Z,90.70
2018-12-17T16:10:08.973Z,90.40
2018-12-17T16:12:37.419Z,90.40
2018-12-17T16:15:05.774Z,90.30
2018-12-17T16:17:33.837Z,90.20
2018-12-17T16:20:01.992Z,90.00
2018-12-17T16:22:30.285Z,90.00
2018-12-17T16:24:58.435Z,90.00
2018-12-17T16:27:26.566Z,89.60
2018-12-17T16:29:56.542Z,89.40
2018-12-17T16:32:25.205Z,89.50
2018-12-17T16:34:53.580Z,89.30
2018-12-17T16:37:22.127Z,89.50
2018-12-17T16:39:50.727Z,89.30
2018-12-17T16:42:19.396Z,89.30
2018-12-17T16:44:48.545Z,89.40
2018-12-17T16:47:16.810Z,89.80
2018-12-17T16:49:51.803Z,90.10
2018-12-17T16:52:19.961Z,89.90
2018-12-17T16:54:48.161Z,90.10
2018-12-17T16:57:16.394Z,90.40
2018-12-17T16:59:44.475Z,90.50
2018-12-17T17:02:12.673Z,90.40
2018-12-17T17:04:41.016Z,90.50
2018-12-17T17:07:10.323Z,90.60
2018-12-17T17:09:38.492Z,90.80
2018-12-17T17:12:06.867Z,91.00
2018-12-17T17:14:35.026Z,91.00
2018-12-17T17:17:03.313Z,91.10
2018-12-17T17:19:31.457Z,91.10
2018-12-17T17:21:59.638Z,91.00
2018-12-17T17:24:27.828Z,91.00
2018-12-17T17:26:56.171Z,91.00
2018-12-17T17:29:24.286Z,91.00
2018-12-17T17:31:52.441Z,90.90
2018-12-17T17:34:20.950Z,91.10
2018-12-17T17:36:49.062Z,91.10
2018-12-17T17:39:17.416Z,91.20
2018-12-17T17:41:45.822Z,91.50
2018-12-17T17:44:14.012Z,91.50
2018-12-17T17:46:42.154Z,91.60
2018-12-17T17:49:10.593Z,91.90
2018-12-17T17:51:38.769Z,91.90
2018-12-17T17:54:06.894Z,92.00
2018-12-17T17:56:35.370Z,92.00
2018-12-17T17:59:03.495Z,91.90
2018-12-17T18:01:31.806Z,92.00
2018-12-17T18:04:04.588Z,92.20
2018-12-17T18:06:32.894Z,92.10
2018-12-17T18:09:01.101Z,91.90
2018-12-17T18:11:29.424Z,91.70
2018-12-17T18:13:57.646Z,91.50
2018-12-17T18:16:27.036Z,91.50
2018-12-17T18:18:55.386Z,91.50
2018-12-17T18:21:23.571Z,91.40
2018-12-17T18:23:51.850Z,91.20
2018-12-17T18:26:20.830Z,91.10
2018-12-17T18:28:48.945Z,90.90
2018-12-17T18:31:17.336Z,91.00
2018-12-17T18:33:46.327Z,90.90
2018-12-17T18:36:14.434Z,90.80
2018-12-17T18:38:42.644Z,91.20
2018-12-17T18:41:10.902Z,91.30
2018-12-17T18:43:39.256Z,91.50
2018-12-17T18:46:07.608Z,91.70
2018-12-17T18:48:35.814Z,91.90
2018-12-17T18:51:04.668Z,91.80
2018-12-17T18:53:33.037Z,91.90
2018-12-17T18:56:01.241Z,91.80
2018-12-17T18:58:29.428Z,91.80
2018-12-17T19:00:57.698Z,91.80
2018-12-17T19:03:26.249Z,91.80
2018-12-17T19:05:54.785Z,91.90
2018-12-17T19:08:27.239Z,91.70
2018-12-17T19:10:55.443Z,91.70
2018-12-17T19:13:23.623Z,91.60
2018-12-17T19:15:51.797Z,91.40
2018-12-17T19:18:19.989Z,91.40
2018-12-17T19:20:48.154Z,91.50
2018-12-17T19:23:16.670Z,91.60
2018-12-17T19:25:44.969Z,91.70
2018-12-17T19:28:13.262Z,91.80
2018-12-17T19:30:43.360Z,91.80
2018-12-17T19:33:11.806Z,91.70
2018-12-17T19:35:40.630Z,91.80
2018-12-17T19:38:09.012Z,91.70
2018-12-17T19:40:37.292Z,91.60
2018-12-17T19:43:05.794Z,91.60
2018-12-17T19:45:34.575Z,91.60
2018-12-17T19:48:02.838Z,91.50
2018-12-17T19:50:31.735Z,91.50
2018-12-17T19:53:00.795Z,91.60
2018-12-17T19:55:29.314Z,91.60
2018-12-17T19:57:57.794Z,91.60
2018-12-17T20:00:26.238Z,91.70
2018-12-17T20:02:54.918Z,91.80
2018-12-17T20:05:23.231Z,91.90
2018-12-17T20:07:51.557Z,91.90
2018-12-17T20:10:23.908Z,92.10
2018-12-17T20:12:53.184Z,92.10
2018-12-17T20:15:22.800Z,92.20
2018-12-17T20:17:52.977Z,92.20
2018-12-17T20:20:21.822Z,92.20
2018-12-17T20:22:50.892Z,92.30
2018-12-17T20:25:19.213Z,92.30
2018-12-17T20:27:47.513Z,92.20
2018-12-17T20:30:15.838Z,92.20
2018-12-17T20:32:44.038Z,92.20
2018-12-17T20:35:12.477Z,92.30
2018-12-17T20:37:40.750Z,92.30
2018-12-17T20:40:09.504Z,92.20
2018-12-17T20:42:38.241Z,92.10
2018-12-17T20:45:08.349Z,92.20
2018-12-17T20:47:37.848Z,92.20
2018-12-17T20:50:07.376Z,92.20
2018-12-17T20:52:35.802Z,92.10
2018-12-17T20:55:04.534Z,91.80
2018-12-17T20:57:32.799Z,91.70
2018-12-17T21:00:01.153Z,91.40
2018-12-17T21:02:29.707Z,91.60
2018-12-17T21:04:58.146Z,91.60
2018-12-17T21:07:26.359Z,91.80
2018-12-17T21:09:56.634Z,91.90
2018-12-17T21:12:24.874Z,91.90
2018-12-17T21:14:53.077Z,92.00
2018-12-17T21:17:21.434Z,91.90
2018-12-17T21:19:49.664Z,92.00
2018-12-17T21:22:17.864Z,92.00
2018-12-17T21:24:45.954Z,92.10
2018-12-17T21:27:14.112Z,92.20
2018-12-17T21:29:43.058Z,92.30
2018-12-17T21:32:11.287Z,92.30
2018-12-17T21:34:39.501Z,92.40
2018-12-17T21:37:07.643Z,92.30
2018-12-17T21:39:36.096Z,92.30
2018-12-17T21:42:04.936Z,92.20
2018-12-17T21:44:33.330Z,92.10
2018-12-17T21:47:02.877Z,91.90
2018-12-17T21:49:31.401Z,91.90
2018-12-17T21:51:59.482Z,91.90
2018-12-17T21:54:28.026Z,92.10
2018-12-17T21:56:56.211Z,92.40
2018-12-17T21:59:24.338Z,92.30
2018-12-17T22:01:52.576Z,92.60
2018-12-17T22:04:20.816Z,92.60
2018-12-17T22:06:48.922Z,92.60
2018-12-17T22:09:17.203Z,92.50
2018-12-17T22:11:45.375Z,92.30
2018-12-17T22:14:13.621Z,92.40
2018-12-17T22:16:41.908Z,92.30
2018-12-17T22:19:10.185Z,92.10
2018-12-17T22:21:38.402Z,92.00
2018-12-17T22:24:06.930Z,92.00
2018-12-17T22:26:35.078Z,92.10
2018-12-17T22:29:03.247Z,92.20
2018-12-17T22:31:31.476Z,92.20
2018-12-17T22:33:59.589Z,92.20
2018-12-17T22:36:27.819Z,92.10
2018-12-17T22:38:56.217Z,91.80
2018-12-17T22:41:24.407Z,91.80
2018-12-17T22:43:53.150Z,91.90
2018-12-17T22:46:21.687Z,91.70
2018-12-17T22:48:49.877Z,91.80
2018-12-17T22:51:19.279Z,91.90
2018-12-17T22:53:47.430Z,92.00
2018-12-17T22:56:15.627Z,92.10
2018-12-17T22:58:43.799Z,92.10
2018-12-17T23:01:12.311Z,92.10
2018-12-17T23:03:40.480Z,92.10
2018-12-17T23:06:09.066Z,92.30
2018-12-17T23:08:39.430Z,92.50
2018-12-17T23:11:18.840Z,92.70
2018-12-17T23:13:58.472Z,92.80
2018-12-17T23:16:37.986Z,92.80
2018-12-17T23:19:05.258Z,93.20
2018-12-17T23:21:33.540Z,92.80
2018-12-17T23:24:01.878Z,92.70
2018-12-17T23:26:30.064Z,92.60
2018-12-17T23:28:58.178Z,92.60
2018-12-17T23:31:26.703Z,92.70
2018-12-17T23:33:54.786Z,92.80
2018-12-17T23:36:22.993Z,93.00
2018-12-17T23:38:51.489Z,93.10
2018-12-17T23:41:19.926Z,93.00
2018-12-17T23:43:48.254Z,92.80
2018-12-17T23:46:16.594Z,92.60
2018-12-17T23:48:45.109Z,92.50
2018-12-17T23:51:13.768Z,92.40
2018-12-17T23:53:42.441Z,92.50
2018-12-17T23:56:10.905Z,92.60
2018-12-17T23:58:39.198Z,92.70
